createdAt,value
2023-04-02T00:01:37.326Z,0.32
2023-04-02T00:03:17.195Z,0.33
2023-04-02T00:04:56.937Z,0.29
2023-04-02T00:06:36.715Z,0.3
2023-04-02T00:08:16.505Z,0.3
2023-04-02T00:09:56.135Z,0.32
2023-04-02T00:11:36.125Z,0.32
2023-04-02T00:13:15.723Z,0.32
2023-04-02T00:14:55.569Z,0.31
2023-04-02T00:16:35.275Z,0.3
2023-04-02T00:18:14.961Z,0.33
2023-04-02T00:19:54.851Z,0.29
2023-04-02T00:21:34.756Z,0.3
2023-04-02T00:23:14.309Z,0.33
2023-04-02T00:24:54.136Z,0.29
2023-04-02T00:26:34.009Z,0.3
2023-04-02T00:28:13.602Z,0.32
2023-04-02T00:29:53.408Z,0.31
2023-04-02T00:31:33.111Z,0.32
2023-04-02T00:33:12.980Z,0.33
2023-04-02T00:34:52.709Z,0.28
2023-04-02T00:36:32.581Z,0.29
2023-04-02T00:38:12.179Z,0.34
2023-04-02T00:39:51.974Z,0.32
2023-04-02T00:41:31.761Z,0.29
2023-04-02T00:43:11.495Z,0.29
2023-04-02T00:44:51.407Z,0.3
2023-04-02T00:46:31.118Z,0.33
2023-04-02T00:48:10.992Z,0.29
2023-04-02T00:49:50.562Z,0.3
2023-04-02T00:51:30.316Z,0.32
2023-04-02T00:53:10.257Z,0.32
2023-04-02T00:54:50.071Z,0.31
2023-04-02T00:56:29.785Z,0.3
2023-04-02T00:58:09.548Z,0.32
2023-04-02T00:59:49.348Z,0.31
2023-04-02T01:01:28.984Z,0.3
2023-04-02T01:03:08.722Z,0.29
2023-04-02T01:04:48.587Z,0.32
2023-04-02T01:06:28.327Z,0.3
2023-04-02T01:08:07.996Z,0.28
2023-04-02T01:09:47.899Z,0.32
2023-04-02T01:11:27.522Z,0.3
2023-04-02T01:13:07.280Z,0.3
2023-04-02T01:14:47.200Z,0.31
2023-04-02T01:16:26.916Z,0.28
2023-04-02T01:18:06.607Z,0.32
2023-04-02T01:19:46.461Z,0.28
2023-04-02T01:21:26.249Z,0.31
2023-04-02T01:23:06.003Z,0.3
2023-04-02T01:24:45.677Z,0.28
2023-04-02T01:26:25.502Z,0.3
2023-04-02T01:28:05.336Z,0.3
2023-04-02T01:29:45.087Z,0.28
2023-04-02T01:31:24.759Z,0.29
2023-04-02T01:33:04.596Z,0.3
2023-04-02T01:34:44.426Z,0.28
2023-04-02T01:36:24.049Z,0.31
2023-04-02T01:38:03.899Z,0.28
2023-04-02T01:39:43.685Z,0.26
2023-04-02T01:41:23.365Z,0.29
2023-04-02T01:43:03.236Z,0.29
2023-04-02T01:44:43.061Z,0.3
2023-04-02T01:46:22.755Z,0.26
2023-04-02T01:48:02.400Z,0.26
2023-04-02T01:49:42.309Z,0.26
2023-04-02T01:51:22.030Z,0.27
2023-04-02T01:53:01.699Z,0.31
2023-04-02T01:54:41.466Z,0.29
2023-04-02T01:56:21.323Z,0.27
2023-04-02T01:58:01.166Z,0.29
2023-04-02T01:59:40.776Z,0.3
2023-04-02T02:01:20.644Z,0.29
2023-04-02T02:03:00.431Z,0.27
2023-04-02T02:04:40.216Z,0.3
2023-04-02T02:06:20.024Z,0.26
2023-04-02T02:07:59.681Z,0.3
2023-04-02T02:09:39.528Z,0.3
2023-04-02T02:11:19.277Z,0.27
2023-04-02T02:12:58.909Z,0.31
2023-04-02T02:14:38.752Z,0.27
2023-04-02T02:16:18.640Z,0.28
2023-04-02T02:17:58.304Z,0.27
2023-04-02T02:19:38.073Z,0.3
2023-04-02T02:21:17.863Z,0.31
2023-04-02T02:22:57.637Z,0.29
2023-04-02T02:24:37.474Z,0.3
2023-04-02T02:26:17.216Z,0.27
2023-04-02T02:27:57.048Z,0.3
2023-04-02T02:29:36.707Z,0.26
2023-04-02T02:31:16.344Z,0.26
2023-04-02T02:32:56.206Z,0.3
2023-04-02T02:34:36.101Z,0.3
2023-04-02T02:36:15.732Z,0.28
2023-04-02T02:37:55.423Z,0.24
2023-04-02T02:39:35.201Z,0.29
2023-04-02T02:41:15.121Z,0.24
2023-04-02T02:42:54.835Z,0.25
2023-04-02T02:44:34.655Z,0.25
2023-04-02T02:46:14.294Z,0.24
2023-04-02T02:47:54.194Z,0.26
2023-04-02T02:49:33.795Z,0.29
2023-04-02T02:51:13.615Z,0.24
2023-04-02T02:52:53.448Z,0.26
2023-04-02T02:54:33.108Z,0.24
2023-04-02T02:56:12.861Z,0.27
2023-04-02T02:57:52.617Z,0.27
2023-04-02T02:59:32.394Z,0.29
2023-04-02T03:01:12.230Z,0.31
2023-04-02T03:02:52.043Z,0.32
2023-04-02T03:04:31.720Z,0.29
2023-04-02T03:06:11.491Z,0.32
2023-04-02T03:07:51.358Z,0.3
2023-04-02T03:09:31.059Z,0.31
2023-04-02T03:11:10.768Z,0.36
2023-04-02T03:12:50.523Z,0.34
2023-04-02T03:14:30.498Z,0.3
2023-04-02T03:16:10.205Z,0.34
2023-04-02T03:17:49.839Z,0.34
2023-04-02T03:19:29.761Z,0.32
2023-04-02T03:21:09.519Z,0.31
2023-04-02T03:22:49.284Z,0.32
2023-04-02T03:24:28.946Z,0.35
2023-04-02T03:26:08.668Z,0.37
2023-04-02T03:27:48.628Z,0.32
2023-04-02T03:29:28.187Z,0.35
2023-04-02T03:31:07.965Z,0.32
2023-04-02T03:32:47.731Z,0.33
2023-04-02T03:34:27.612Z,0.33
2023-04-02T03:36:07.270Z,0.32
2023-04-02T03:37:47.124Z,0.31
2023-04-02T03:39:26.839Z,0.36
2023-04-02T03:41:06.567Z,0.37
2023-04-02T03:42:46.449Z,0.37
2023-04-02T03:44:26.286Z,0.35
2023-04-02T03:46:05.873Z,0.38
2023-04-02T03:47:45.793Z,0.36
2023-04-02T03:49:25.605Z,0.42
2023-04-02T03:51:05.331Z,0.46
2023-04-02T03:52:44.988Z,0.46
2023-04-02T03:54:24.750Z,0.52
2023-04-02T03:56:04.548Z,0.6
2023-04-02T03:57:44.308Z,0.7
2023-04-02T03:59:24.003Z,0.81
2023-04-02T04:01:03.826Z,0.92
2023-04-02T04:02:43.608Z,1.15
2023-04-02T04:04:23.325Z,1.39
2023-04-02T04:06:03.128Z,1.74
2023-04-02T04:07:43.021Z,2.23
2023-04-02T04:09:22.621Z,2.83
2023-04-02T04:11:02.374Z,3.71
2023-04-02T04:12:42.133Z,4.92
2023-04-02T04:14:21.959Z,6.24
2023-04-02T04:16:01.700Z,8.52
2023-04-02T04:17:41.440Z,10.18
2023-04-02T04:19:21.212Z,12.37
2023-04-02T04:21:01.108Z,15.28
2023-04-02T04:22:40.741Z,18.79
2023-04-02T04:24:20.523Z,22.84
2023-04-02T04:26:00.357Z,25.47
2023-04-02T04:27:40.042Z,26.38
2023-04-02T04:29:19.850Z,26.72
2023-04-02T04:30:59.714Z,26.75
2023-04-02T04:32:39.327Z,26.76
2023-04-02T04:34:19.097Z,26.78
2023-04-02T04:35:58.965Z,26.69
2023-04-02T04:37:38.680Z,26.79
2023-04-02T04:39:18.408Z,26.8
2023-04-02T04:40:58.157Z,26.8
2023-04-02T04:42:37.930Z,26.81
2023-04-02T04:44:17.715Z,26.82
2023-04-02T04:45:57.517Z,26.82
2023-04-02T04:47:37.237Z,26.83
2023-04-02T04:49:16.984Z,26.83
2023-04-02T04:50:56.774Z,26.83
2023-04-02T04:52:36.532Z,26.85
2023-04-02T04:54:16.303Z,26.84
2023-04-02T04:55:56.070Z,26.86
2023-04-02T04:57:35.919Z,26.85
2023-04-02T04:59:15.622Z,26.86
2023-04-02T05:00:55.358Z,26.87
2023-04-02T05:02:35.140Z,26.9
2023-04-02T05:04:14.910Z,26.88
2023-04-02T05:05:54.662Z,26.9
2023-04-02T05:07:34.465Z,26.89
2023-04-02T05:09:14.238Z,26.9
2023-04-02T05:10:54.015Z,26.91
2023-04-02T05:12:33.770Z,26.92
2023-04-02T05:14:13.506Z,26.92
2023-04-02T05:15:53.279Z,26.94
2023-04-02T05:17:33.038Z,26.93
2023-04-02T05:19:12.812Z,26.96
2023-04-02T05:20:52.571Z,26.95
2023-04-02T05:22:32.328Z,26.97
2023-04-02T05:24:12.108Z,26.96
2023-04-02T05:25:51.895Z,26.99
2023-04-02T05:27:31.647Z,26.97
2023-04-02T05:29:11.401Z,32.31
2023-04-02T05:30:51.233Z,32.62
2023-04-02T05:32:30.938Z,27.02
2023-04-02T05:34:10.731Z,27.03
2023-04-02T05:35:50.592Z,27.05
2023-04-02T05:37:30.265Z,27.08
2023-04-02T05:39:10.025Z,27.09
2023-04-02T05:40:49.792Z,27.11
2023-04-02T05:42:29.713Z,27.13
2023-04-02T05:44:09.376Z,27.16
2023-04-02T05:45:49.107Z,27.19
2023-04-02T05:47:28.869Z,27.23
2023-04-02T05:49:08.653Z,27.26
2023-04-02T05:50:48.498Z,27.22
2023-04-02T05:52:28.189Z,27.42
2023-04-02T05:54:07.974Z,27.46
2023-04-02T05:55:47.720Z,27.47
2023-04-02T05:57:27.489Z,27.53
2023-04-02T05:59:07.268Z,27.62
2023-04-02T06:00:47.044Z,27.69
2023-04-02T06:02:26.800Z,27.79
2023-04-02T06:04:06.638Z,27.88
2023-04-02T06:05:46.355Z,27.95
2023-04-02T06:07:26.205Z,28.1
2023-04-02T06:09:05.884Z,28.16
2023-04-02T06:10:45.652Z,28.21
2023-04-02T06:12:25.468Z,28.26
2023-04-02T06:14:05.194Z,28.35
2023-04-02T06:15:45.070Z,28.38
2023-04-02T06:17:24.737Z,28.47
2023-04-02T06:19:04.525Z,28.53
2023-04-02T06:20:44.275Z,28.63
2023-04-02T06:22:24.055Z,28.84
2023-04-02T06:24:03.821Z,28.91
2023-04-02T06:25:43.608Z,28.95
2023-04-02T06:27:23.441Z,29.03
2023-04-02T06:29:03.127Z,28.66
2023-04-02T06:30:42.894Z,71.01
2023-04-02T06:32:22.663Z,74.78
2023-04-02T06:34:02.424Z,77.44
2023-04-02T06:35:42.205Z,83.9
2023-04-02T06:37:22.009Z,84.65
2023-04-02T06:39:01.737Z,83.92
2023-04-02T06:40:41.518Z,84.96
2023-04-02T06:42:21.280Z,84.8
2023-04-02T06:44:01.059Z,83.62
2023-04-02T06:45:40.833Z,84.16
2023-04-02T06:47:20.598Z,84.25
2023-04-02T06:49:00.373Z,83.87
2023-04-02T06:50:40.156Z,85.24
2023-04-02T06:52:19.957Z,86.34
2023-04-02T06:53:59.683Z,84.69
2023-04-02T06:55:39.467Z,84.83
2023-04-02T06:57:19.223Z,85.36
2023-04-02T06:58:58.989Z,86.52
2023-04-02T07:00:38.764Z,85.94
2023-04-02T07:02:18.540Z,85.92
2023-04-02T07:03:58.339Z,85.37
2023-04-02T07:05:38.177Z,86.39
2023-04-02T07:07:17.840Z,87.06
2023-04-02T07:08:57.614Z,86.64
2023-04-02T07:10:37.373Z,85.51
2023-04-02T07:12:17.176Z,87.24
2023-04-02T07:13:56.924Z,86.47
2023-04-02T07:15:36.690Z,86.24
2023-04-02T07:17:16.463Z,87.63
2023-04-02T07:18:56.211Z,87.53
2023-04-02T07:20:35.998Z,87.67
2023-04-02T07:22:15.768Z,87.19
2023-04-02T07:23:55.530Z,87.78
2023-04-02T07:25:35.423Z,87.95
2023-04-02T07:27:15.077Z,87.38
2023-04-02T07:28:54.962Z,87.74
2023-04-02T07:30:34.625Z,86.46
2023-04-02T07:32:14.398Z,85.71
2023-04-02T07:33:54.174Z,86.02
2023-04-02T07:35:34.055Z,86.05
2023-04-02T07:37:13.698Z,86.73
2023-04-02T07:38:53.470Z,86.51
2023-04-02T07:40:33.253Z,86.32
2023-04-02T07:42:13.015Z,86.79
2023-04-02T07:43:52.773Z,87.6
2023-04-02T07:45:32.628Z,87.42
2023-04-02T07:47:12.314Z,87.88
2023-04-02T07:48:52.128Z,86.9
2023-04-02T07:50:31.865Z,87.95
2023-04-02T07:52:11.648Z,88.37
2023-04-02T07:53:51.415Z,88.41
2023-04-02T07:55:31.289Z,88.6
2023-04-02T07:57:10.982Z,88.61
2023-04-02T07:58:50.787Z,88.55
2023-04-02T08:00:30.495Z,88.84
2023-04-02T08:02:10.251Z,89.05
2023-04-02T08:03:50.032Z,88.24
2023-04-02T08:05:29.927Z,88.35
2023-04-02T08:07:09.565Z,87.95
2023-04-02T08:08:49.388Z,87.86
2023-04-02T08:10:29.098Z,87.6
2023-04-02T08:12:08.875Z,87.83
2023-04-02T08:13:48.646Z,88.41
2023-04-02T08:15:28.537Z,88.93
2023-04-02T08:17:08.194Z,88.8
2023-04-02T08:18:48.107Z,89.42
2023-04-02T08:20:27.726Z,87.63
2023-04-02T08:22:07.487Z,87.56
2023-04-02T08:23:47.271Z,87.71
2023-04-02T08:25:27.214Z,87.87
2023-04-02T08:27:06.828Z,87.65
2023-04-02T08:28:46.617Z,87.78
2023-04-02T08:30:26.348Z,88.2
2023-04-02T08:32:06.131Z,88.43
2023-04-02T08:33:45.883Z,88.21
2023-04-02T08:35:25.751Z,87.71
2023-04-02T08:37:05.449Z,87.34
2023-04-02T08:38:45.200Z,87.27
2023-04-02T08:40:24.987Z,87.24
2023-04-02T08:42:04.754Z,87.02
2023-04-02T08:43:44.502Z,87.32
2023-04-02T08:45:24.273Z,87.21
2023-04-02T08:47:04.074Z,87.27
2023-04-02T08:48:43.936Z,87.43
2023-04-02T08:50:23.668Z,87.33
2023-04-02T08:52:03.521Z,87.14
2023-04-02T08:53:43.141Z,86.98
2023-04-02T08:55:23.074Z,86.94
2023-04-02T08:57:02.721Z,87.17
2023-04-02T08:58:42.448Z,87.05
2023-04-02T09:00:22.245Z,86.75
2023-04-02T09:02:02.048Z,86.48
2023-04-02T09:03:41.828Z,86.13
2023-04-02T09:05:21.687Z,86.14
2023-04-02T09:07:01.314Z,86.62
2023-04-02T09:08:41.056Z,86.87
2023-04-02T09:10:20.832Z,86.79
2023-04-02T09:12:00.605Z,86.68
2023-04-02T09:13:40.369Z,86.94
2023-04-02T09:15:20.223Z,86.58
2023-04-02T09:16:59.997Z,86.95
2023-04-02T09:18:39.746Z,87.59
2023-04-02T09:20:19.456Z,88.01
2023-04-02T09:21:59.265Z,88.31
2023-04-02T09:23:38.990Z,88.49
2023-04-02T09:25:18.768Z,87.98
2023-04-02T09:26:58.563Z,86.88
2023-04-02T09:28:38.305Z,86.27
2023-04-02T09:30:18.081Z,88.08
2023-04-02T09:31:57.917Z,92.79
2023-04-02T09:33:37.684Z,91.33
2023-04-02T09:35:17.374Z,91.29
2023-04-02T09:36:57.150Z,90.4
2023-04-02T09:38:36.994Z,88.38
2023-04-02T09:40:16.688Z,90.49
2023-04-02T09:41:56.494Z,89.75
2023-04-02T09:43:36.232Z,89.82
2023-04-02T09:45:16.021Z,90.03
2023-04-02T09:46:55.759Z,89.08
2023-04-02T09:48:35.533Z,86.38
2023-04-02T09:50:15.303Z,87.36
2023-04-02T09:51:55.109Z,90.28
2023-04-02T09:53:34.847Z,86.88
2023-04-02T09:55:14.625Z,87.55
2023-04-02T09:56:54.495Z,88.43
2023-04-02T09:58:34.155Z,87.72
2023-04-02T10:00:13.961Z,87.84
2023-04-02T10:01:53.759Z,89
2023-04-02T10:03:33.490Z,88.85
2023-04-02T10:05:13.243Z,91.21
2023-04-02T10:06:53.104Z,89.2
2023-04-02T10:08:32.777Z,92.27
2023-04-02T10:10:12.583Z,87.98
2023-04-02T10:11:52.445Z,91.55
2023-04-02T10:13:32.117Z,88.37
2023-04-02T10:15:11.848Z,87.69
2023-04-02T10:16:51.655Z,87.59
2023-04-02T10:18:31.424Z,88.08
2023-04-02T10:20:11.220Z,88.81
2023-04-02T10:21:50.949Z,89.27
2023-04-02T10:23:30.718Z,87.7
2023-04-02T10:25:10.479Z,90.93
2023-04-02T10:26:50.260Z,92.03
2023-04-02T10:28:30.023Z,87.63
2023-04-02T10:30:09.781Z,90.28
2023-04-02T10:31:49.567Z,89.87
2023-04-02T10:33:29.335Z,86.74
2023-04-02T10:35:09.122Z,87.93
2023-04-02T10:36:48.869Z,88.6
2023-04-02T10:38:28.682Z,87.22
2023-04-02T10:40:08.417Z,88.59
2023-04-02T10:41:48.188Z,88.22
2023-04-02T10:43:27.954Z,87.67
2023-04-02T10:45:07.732Z,87.87
2023-04-02T10:46:47.519Z,88.06
2023-04-02T10:48:27.246Z,87.46
2023-04-02T10:50:07.031Z,87.56
2023-04-02T10:51:46.803Z,87.44
2023-04-02T10:53:26.585Z,87.59
2023-04-02T10:55:06.339Z,87.9
2023-04-02T10:56:46.177Z,88.07
2023-04-02T10:58:25.882Z,88.3
2023-04-02T11:00:05.660Z,88.3
2023-04-02T11:01:45.413Z,88.21
2023-04-02T11:03:25.209Z,88.36
2023-04-02T11:05:04.959Z,88.26
2023-04-02T11:06:44.858Z,87.95
2023-04-02T11:08:24.516Z,87.79
2023-04-02T11:10:04.366Z,87.76
2023-04-02T11:11:44.042Z,87.84
2023-04-02T11:13:23.811Z,87.7
2023-04-02T11:15:03.611Z,87.71
2023-04-02T11:16:43.456Z,87.89
2023-04-02T11:18:23.118Z,88.19
2023-04-02T11:20:02.928Z,88.41
2023-04-02T11:21:42.655Z,88.51
2023-04-02T11:23:22.586Z,88.3
2023-04-02T11:25:02.263Z,88.35
2023-04-02T11:26:42.004Z,88.28
2023-04-02T11:28:21.739Z,88.49
2023-04-02T11:30:01.519Z,88.17
2023-04-02T11:31:41.289Z,87.99
2023-04-02T11:33:21.216Z,87.79
2023-04-02T11:35:00.821Z,87.45
2023-04-02T11:36:40.605Z,87.29
2023-04-02T11:38:20.356Z,87.36
2023-04-02T11:40:00.141Z,87.36
2023-04-02T11:41:39.900Z,87.86
2023-04-02T11:43:19.670Z,88.08
2023-04-02T11:44:59.441Z,88.08
2023-04-02T11:46:39.229Z,87.79
2023-04-02T11:48:18.979Z,87.43
2023-04-02T11:49:58.785Z,87.23
2023-04-02T11:51:38.543Z,87.37
2023-04-02T11:53:18.281Z,87.38
2023-04-02T11:54:58.113Z,87.26
2023-04-02T11:56:37.899Z,87.31
2023-04-02T11:58:17.620Z,87.5
2023-04-02T11:59:57.366Z,87.7
2023-04-02T12:01:37.230Z,87.91
2023-04-02T12:03:17.053Z,88.26
2023-04-02T12:04:56.681Z,88.64
2023-04-02T12:06:36.502Z,89.21
2023-04-02T12:08:16.351Z,89.41
2023-04-02T12:09:56.021Z,89.58
2023-04-02T12:11:35.847Z,90.09
2023-04-02T12:13:15.533Z,89.91
2023-04-02T12:14:55.314Z,88.91
2023-04-02T12:16:35.103Z,88.77
2023-04-02T12:18:14.860Z,88.38
2023-04-02T12:19:54.641Z,88.24
2023-04-02T12:21:34.416Z,87.84
2023-04-02T12:23:14.157Z,87.35
2023-04-02T12:24:53.990Z,87.47
2023-04-02T12:26:33.694Z,87.45
2023-04-02T12:28:13.468Z,87.48
2023-04-02T12:29:53.314Z,87.46
2023-04-02T12:31:33.032Z,87.28
2023-04-02T12:33:12.777Z,87.6
2023-04-02T12:34:52.544Z,88.02
2023-04-02T12:36:32.413Z,88.08
2023-04-02T12:38:12.085Z,87.82
2023-04-02T12:39:51.847Z,87.69
2023-04-02T12:41:31.693Z,89.05
2023-04-02T12:43:11.390Z,92.26
2023-04-02T12:44:51.174Z,90.8
2023-04-02T12:46:30.952Z,90.02
2023-04-02T12:48:10.765Z,89.26
2023-04-02T12:49:50.487Z,88.93
2023-04-02T12:51:30.247Z,85.69
2023-04-02T12:53:10.089Z,85.43
2023-04-02T12:54:49.939Z,85.47
2023-04-02T12:56:29.561Z,85.65
2023-04-02T12:58:09.385Z,85.8
2023-04-02T12:59:49.104Z,86.26
2023-04-02T13:01:28.867Z,89.84
2023-04-02T13:03:08.660Z,86.51
2023-04-02T13:04:48.414Z,86.6
2023-04-02T13:06:28.173Z,86.63
2023-04-02T13:08:07.975Z,86.43
2023-04-02T13:09:47.729Z,88.04
2023-04-02T13:11:27.486Z,90.63
2023-04-02T13:13:07.258Z,89.66
2023-04-02T13:14:47.025Z,87.61
2023-04-02T13:16:26.822Z,90.54
2023-04-02T13:18:06.585Z,89.31
2023-04-02T13:19:46.388Z,88.6
2023-04-02T13:21:26.121Z,84
2023-04-02T13:23:05.916Z,83.62
2023-04-02T13:24:45.666Z,83.23
2023-04-02T13:26:25.432Z,83.45
2023-04-02T13:28:05.192Z,85.71
2023-04-02T13:29:44.972Z,90.82
2023-04-02T13:31:24.865Z,89.96
2023-04-02T13:33:04.528Z,89.23
2023-04-02T13:36:24.071Z,88.07
2023-04-02T13:39:43.596Z,83.99
2023-04-02T13:41:23.376Z,87.95
2023-04-02T13:43:03.116Z,84.4
2023-04-02T13:44:42.931Z,84.86
2023-04-02T13:46:22.696Z,85.13
2023-04-02T13:48:02.471Z,90.48
2023-04-02T13:49:42.200Z,89.81
2023-04-02T13:51:22.023Z,85.04
2023-04-02T13:53:01.752Z,87.26
2023-04-02T13:54:41.533Z,84.42
2023-04-02T13:56:21.301Z,84.73
2023-04-02T13:58:01.059Z,85.03
2023-04-02T13:59:40.820Z,85.56
2023-04-02T14:01:20.627Z,86.41
2023-04-02T14:03:00.370Z,87.22
2023-04-02T14:04:40.138Z,87.81
2023-04-02T14:06:20.030Z,92
2023-04-02T14:07:59.701Z,88.16
2023-04-02T14:09:39.460Z,90.77
2023-04-02T14:11:19.218Z,88.9
2023-04-02T14:12:58.991Z,85.28
2023-04-02T14:14:38.770Z,84.98
2023-04-02T14:16:18.523Z,87.9
2023-04-02T14:17:58.328Z,89.77
2023-04-02T14:19:38.159Z,87.59
2023-04-02T14:21:17.887Z,83.61
2023-04-02T14:22:57.679Z,83.85
2023-04-02T14:24:37.388Z,84.6
2023-04-02T14:26:17.161Z,85.45
2023-04-02T14:27:56.958Z,86.63
2023-04-02T14:29:36.711Z,87.45
2023-04-02T14:31:16.534Z,87.28
2023-04-02T14:32:56.234Z,87.24
2023-04-02T14:34:36.174Z,87.31
2023-04-02T14:36:15.787Z,91.82
2023-04-02T14:37:55.566Z,90.7
2023-04-02T14:39:35.318Z,89.42
2023-04-02T14:41:15.110Z,83.03
2023-04-02T14:42:54.867Z,83.37
2023-04-02T14:44:34.639Z,84.29
2023-04-02T14:46:14.396Z,84.55
2023-04-02T14:47:54.162Z,84.51
2023-04-02T14:49:33.942Z,84.51
2023-04-02T14:51:13.733Z,85.85
2023-04-02T14:52:53.485Z,92.23
2023-04-02T14:54:33.300Z,91.02
2023-04-02T14:56:13.024Z,90.41
2023-04-02T14:57:52.830Z,89.3
2023-04-02T14:59:32.562Z,83.81
2023-04-02T15:01:12.332Z,84.61
2023-04-02T15:02:52.168Z,85.27
2023-04-02T15:04:31.943Z,85.56
2023-04-02T15:06:11.637Z,85.66
2023-04-02T15:07:51.413Z,85.41
2023-04-02T15:09:31.201Z,85.1
2023-04-02T15:11:11.017Z,85.3
2023-04-02T15:12:50.805Z,85.92
2023-04-02T15:14:30.535Z,86.83
2023-04-02T15:16:10.259Z,87.61
2023-04-02T15:17:50.039Z,90.82
2023-04-02T15:19:29.824Z,83.59
2023-04-02T15:21:09.566Z,83.18
2023-04-02T15:22:49.434Z,83.27
2023-04-02T15:24:29.118Z,83.69
2023-04-02T15:26:08.882Z,84.15
2023-04-02T15:27:48.651Z,85.38
2023-04-02T15:29:28.423Z,86.44
2023-04-02T15:31:08.344Z,86.54
2023-04-02T15:32:48.126Z,90.13
2023-04-02T15:34:27.730Z,90.52
2023-04-02T15:36:07.616Z,84.4
2023-04-02T15:37:47.280Z,84.48
2023-04-02T15:39:27.050Z,84.52
2023-04-02T15:41:06.820Z,84.38
2023-04-02T15:42:46.603Z,85.65
2023-04-02T15:44:26.368Z,88.85
2023-04-02T15:46:06.127Z,90
2023-04-02T15:47:45.895Z,90.18
2023-04-02T15:49:25.677Z,89.47
2023-04-02T15:51:05.450Z,88.86
2023-04-02T15:52:45.191Z,83.21
2023-04-02T15:54:24.979Z,82.93
2023-04-02T15:56:04.751Z,83.4
2023-04-02T15:57:44.563Z,83.57
2023-04-02T15:59:24.284Z,83.12
2023-04-02T16:01:04.069Z,82.99
2023-04-02T16:02:43.829Z,84.03
2023-04-02T16:04:23.606Z,85.61
2023-04-02T16:06:03.378Z,86.54
2023-04-02T16:07:43.139Z,90.57
2023-04-02T16:09:22.908Z,89.89
2023-04-02T16:11:02.832Z,89.23
2023-04-02T16:12:42.474Z,88.68
2023-04-02T16:14:22.252Z,88.37
2023-04-02T16:16:02.016Z,82.32
2023-04-02T16:17:41.762Z,80.86
2023-04-02T16:19:21.540Z,80.8
2023-04-02T16:21:01.371Z,81.43
2023-04-02T16:22:41.086Z,82.43
2023-04-02T16:24:20.840Z,83.01
2023-04-02T16:26:00.650Z,84.25
2023-04-02T16:27:40.411Z,89.83
2023-04-02T16:29:20.158Z,89.26
2023-04-02T16:31:00.062Z,88.6
2023-04-02T16:32:39.692Z,88.01
2023-04-02T16:34:19.468Z,87.63
2023-04-02T16:35:59.281Z,87.42
2023-04-02T16:37:39.054Z,86.07
2023-04-02T16:39:18.789Z,81.69
2023-04-02T16:40:58.572Z,80.75
2023-04-02T16:42:38.365Z,81.75
2023-04-02T16:44:18.099Z,83.06
2023-04-02T16:45:57.861Z,84.18
2023-04-02T16:47:37.632Z,84.19
2023-04-02T16:49:17.387Z,86.18
2023-04-02T16:50:57.199Z,83.04
2023-04-02T16:52:36.946Z,82.69
2023-04-02T16:54:16.709Z,81.89
2023-04-02T16:55:56.491Z,80.94
2023-04-02T16:57:36.279Z,80.14
2023-04-02T16:59:16.022Z,80.21
2023-04-02T17:00:55.873Z,82.65
2023-04-02T17:02:35.557Z,85.4
2023-04-02T17:04:15.345Z,85.37
2023-04-02T17:05:55.092Z,85.07
2023-04-02T17:07:34.914Z,78.56
2023-04-02T17:09:14.633Z,77.08
2023-04-02T17:10:54.501Z,75.06
2023-04-02T17:12:34.203Z,82.41
2023-04-02T17:14:13.939Z,81.67
2023-04-02T17:15:53.709Z,82.33
2023-04-02T17:17:33.479Z,80.01
2023-04-02T17:19:13.264Z,75.8
2023-04-02T17:20:53.032Z,67.54
2023-04-02T17:22:32.798Z,55.83
2023-04-02T17:24:12.590Z,44.65
2023-04-02T17:25:52.334Z,34.66
2023-04-02T17:27:32.104Z,34.33
2023-04-02T17:29:11.874Z,34.34
2023-04-02T17:30:51.719Z,34.12
2023-04-02T17:32:31.408Z,28.78
2023-04-02T17:34:11.340Z,28.51
2023-04-02T17:35:50.944Z,28.46
2023-04-02T17:37:30.787Z,28.41
2023-04-02T17:39:10.540Z,28.38
2023-04-02T17:40:50.344Z,28.35
2023-04-02T17:42:30.031Z,28.33
2023-04-02T17:44:09.872Z,32.46
2023-04-02T17:45:49.566Z,28.23
2023-04-02T17:47:29.360Z,28.22
2023-04-02T17:49:09.120Z,28.19
2023-04-02T17:50:48.859Z,28.14
2023-04-02T17:52:28.647Z,28.1
2023-04-02T17:54:08.406Z,28.08
2023-04-02T17:55:48.167Z,27.91
2023-04-02T17:57:27.928Z,28.01
2023-04-02T17:59:07.713Z,27.97
2023-04-02T18:00:47.604Z,27.92
2023-04-02T18:02:27.240Z,27.9
2023-04-02T18:04:06.994Z,27.83
2023-04-02T18:05:46.753Z,27.76
2023-04-02T18:07:26.525Z,26.48
2023-04-02T18:09:06.297Z,22.01
2023-04-02T18:10:46.062Z,17.68
2023-04-02T18:12:25.826Z,13.83
2023-04-02T18:14:05.612Z,10.65
2023-04-02T18:15:45.371Z,8.1
2023-04-02T18:17:25.159Z,6.2
2023-04-02T18:19:04.904Z,4.77
2023-04-02T18:20:44.734Z,3.71
2023-04-02T18:22:24.465Z,2.95
2023-04-02T18:24:04.215Z,2.33
2023-04-02T18:25:43.982Z,1.83
2023-04-02T18:27:23.743Z,1.47
2023-04-02T18:29:03.536Z,1.2
2023-04-02T18:30:43.275Z,1
2023-04-02T18:32:23.036Z,0.79
2023-04-02T18:34:02.935Z,0.65
2023-04-02T18:35:42.581Z,0.58
2023-04-02T18:37:22.343Z,0.48
2023-04-02T18:39:02.108Z,0.44
2023-04-02T18:40:41.872Z,0.39
2023-04-02T18:42:21.662Z,0.36
2023-04-02T18:44:01.443Z,0.38
2023-04-02T18:45:41.290Z,0.35
2023-04-02T18:47:20.971Z,0.35
2023-04-02T18:49:00.790Z,0.3
2023-04-02T18:50:40.484Z,0.33
2023-04-02T18:52:20.325Z,0.3
2023-04-02T18:54:00.015Z,0.32
2023-04-02T18:55:39.858Z,0.31
2023-04-02T18:57:19.685Z,0.32
2023-04-02T18:58:59.468Z,0.3
2023-04-02T19:00:39.234Z,0.28
2023-04-02T19:02:19.049Z,0.31
2023-04-02T19:03:58.791Z,0.29
2023-04-02T19:05:38.381Z,0.32
2023-04-02T19:07:18.334Z,0.31
2023-04-02T19:08:58.066Z,0.3
2023-04-02T19:10:37.884Z,0.28
2023-04-02T19:12:17.570Z,0.28
2023-04-02T19:13:57.383Z,0.27
2023-04-02T19:15:37.167Z,0.31
2023-04-02T19:17:16.901Z,0.29
2023-04-02T19:18:56.721Z,0.31
2023-04-02T19:20:36.408Z,0.33
2023-04-02T19:22:16.191Z,0.32
2023-04-02T19:23:55.956Z,0.3
2023-04-02T19:25:35.612Z,0.3
2023-04-02T19:27:15.541Z,0.32
2023-04-02T19:28:55.308Z,0.32
2023-04-02T19:30:35.097Z,0.32
2023-04-02T19:32:14.660Z,0.33
2023-04-02T19:33:54.624Z,0.28
2023-04-02T19:35:34.342Z,0.29
2023-04-02T19:37:14.218Z,0.31
2023-04-02T19:38:53.900Z,0.3
2023-04-02T19:40:33.675Z,0.32
2023-04-02T19:42:13.431Z,0.31
2023-04-02T19:43:53.241Z,0.3
2023-04-02T19:45:32.956Z,0.3
2023-04-02T19:47:12.766Z,0.33
2023-04-02T19:48:52.489Z,0.3
2023-04-02T19:50:32.302Z,0.3
2023-04-02T19:52:11.878Z,0.34
2023-04-02T19:53:51.875Z,0.32
2023-04-02T19:55:31.509Z,0.31
2023-04-02T19:57:11.188Z,0.32
2023-04-02T19:58:51.137Z,0.3
2023-04-02T20:00:30.834Z,0.3
2023-04-02T20:02:10.480Z,0.31
2023-04-02T20:03:50.389Z,0.29
2023-04-02T20:05:30.208Z,0.3
2023-04-02T20:07:09.979Z,0.33
2023-04-02T20:08:49.764Z,0.32
2023-04-02T20:10:29.306Z,0.32
2023-04-02T20:12:09.073Z,0.34
2023-04-02T20:13:49.004Z,0.3
2023-04-02T20:15:28.738Z,0.33
2023-04-02T20:17:08.508Z,0.35
2023-04-02T20:18:48.314Z,0.34
2023-04-02T20:20:27.910Z,0.35
2023-04-02T20:22:07.852Z,0.32
2023-04-02T20:23:47.639Z,0.35
2023-04-02T20:25:27.412Z,0.34
2023-04-02T20:27:07.120Z,0.33
2023-04-02T20:28:46.936Z,0.35
2023-04-02T20:30:26.611Z,0.35
2023-04-02T20:32:06.372Z,0.32
2023-04-02T20:33:46.201Z,0.33
2023-04-02T20:35:26.028Z,0.32
2023-04-02T20:37:05.782Z,0.31
2023-04-02T20:38:45.557Z,0.31
2023-04-02T20:40:25.140Z,0.33
2023-04-02T20:42:05.066Z,0.31
2023-04-02T20:43:44.882Z,0.35
2023-04-02T20:45:24.514Z,0.35
2023-04-02T20:47:04.347Z,0.32
2023-04-02T20:48:43.967Z,0.32
2023-04-02T20:50:23.830Z,0.34
2023-04-02T20:52:03.491Z,0.31
2023-04-02T20:53:43.363Z,0.34
2023-04-02T20:55:23.231Z,0.36
2023-04-02T20:57:03.046Z,0.35
2023-04-02T20:58:42.605Z,0.32
2023-04-02T21:00:22.329Z,0.35
2023-04-02T21:02:02.292Z,0.35
2023-04-02T21:03:41.949Z,0.34
2023-04-02T21:05:21.759Z,0.32
2023-04-02T21:07:01.524Z,0.36
2023-04-02T21:08:41.358Z,0.35
2023-04-02T21:10:21.014Z,0.36
2023-04-02T21:12:00.838Z,0.33
2023-04-02T21:13:40.633Z,0.35
2023-04-02T21:15:20.340Z,0.36
2023-04-02T21:17:00.248Z,0.36
2023-04-02T21:18:39.934Z,0.32
2023-04-02T21:20:19.539Z,0.31
2023-04-02T21:21:59.423Z,0.33
2023-04-02T21:23:39.301Z,0.36
2023-04-02T21:25:19.019Z,0.36
2023-04-02T21:26:58.785Z,0.33
2023-04-02T21:28:38.578Z,0.35
2023-04-02T21:30:18.230Z,0.33
2023-04-02T21:31:57.931Z,0.32
2023-04-02T21:33:37.847Z,0.33
2023-04-02T21:35:17.589Z,0.35
2023-04-02T21:36:57.385Z,0.33
2023-04-02T21:38:37.126Z,0.32
2023-04-02T21:40:16.887Z,0.34
2023-04-02T21:41:56.706Z,0.32
2023-04-02T21:43:36.287Z,0.34
2023-04-02T21:45:16.241Z,0.35
2023-04-02T21:46:55.982Z,0.33
2023-04-02T21:48:35.757Z,0.32
2023-04-02T21:50:15.515Z,0.31